sensor_id;sensor_type;location;lat;lon;timestamp;temperature;humidity
74792;SHT30;63319;46.046;17.802;2022-09-29T06:02:27;20.57;58.48
74792;SHT30;63319;46.046;17.802;2022-09-29T06:05:31;20.68;59.34
74792;SHT30;63319;46.046;17.802;2022-09-29T06:08:34;20.92;59.83
74792;SHT30;63319;46.046;17.802;2022-09-29T06:11:38;22.46;56.17
74792;SHT30;63319;46.046;17.802;2022-09-29T06:14:42;23.89;52.66
74792;SHT30;63319;46.046;17.802;2022-09-29T06:17:57;24.65;50.90
74792;SHT30;63319;46.046;17.802;2022-09-29T06:21:10;24.85;50.81
74792;SHT30;63319;46.046;17.802;2022-09-29T06:24:23;25.18;50.11
74792;SHT30;63319;46.046;17.802;2022-09-29T06:27:45;25.40;49.84
74792;SHT30;63319;46.046;17.802;2022-09-29T06:30:48;25.39;50.04
74792;SHT30;63319;46.046;17.802;2022-09-29T06:33:51;25.75;49.50
74792;SHT30;63319;46.046;17.802;2022-09-29T06:36:56;25.82;49.45
74792;SHT30;63319;46.046;17.802;2022-09-29T06:40:22;25.91;49.36
74792;SHT30;63319;46.046;17.802;2022-09-29T06:43:26;25.96;49.46
74792;SHT30;63319;46.046;17.802;2022-09-29T06:46:29;26.14;49.24
74792;SHT30;63319;46.046;17.802;2022-09-29T06:49:32;26.33;48.95
74792;SHT30;63319;46.046;17.802;2022-09-29T06:52:35;26.29;49.21
74792;SHT30;63319;46.046;17.802;2022-09-29T06:55:39;26.24;49.42
74792;SHT30;63319;46.046;17.802;2022-09-29T06:58:43;26.22;49.62
74792;SHT30;63319;46.046;17.802;2022-09-29T07:01:47;26.21;49.80
74792;SHT30;63319;46.046;17.802;2022-09-29T07:04:52;25.81;50.79
74792;SHT30;63319;46.046;17.802;2022-09-29T07:07:55;25.95;50.55
74792;SHT30;63319;46.046;17.802;2022-09-29T07:11:02;26.02;50.56
74792;SHT30;63319;46.046;17.802;2022-09-29T07:14:05;26.11;50.30
74792;SHT30;63319;46.046;17.802;2022-09-29T07:17:07;26.15;50.46
74792;SHT30;63319;46.046;17.802;2022-09-29T07:20:13;26.49;49.74
74792;SHT30;63319;46.046;17.802;2022-09-29T07:23:16;26.64;49.47
74792;SHT30;63319;46.046;17.802;2022-09-29T07:26:18;26.67;49.32
74792;SHT30;63319;46.046;17.802;2022-09-29T07:29:21;26.50;49.81
74792;SHT30;63319;46.046;17.802;2022-09-29T07:32:24;26.21;50.81
74792;SHT30;63319;46.046;17.802;2022-09-29T07:35:30;26.53;50.20
74792;SHT30;63319;46.046;17.802;2022-09-29T07:38:44;26.56;50.24
74792;SHT30;63319;46.046;17.802;2022-09-29T07:41:48;26.57;50.48
74792;SHT30;63319;46.046;17.802;2022-09-29T07:44:51;26.77;49.83
74792;SHT30;63319;46.046;17.802;2022-09-29T07:47:55;26.70;50.25
74792;SHT30;63319;46.046;17.802;2022-09-29T07:51:00;26.64;50.27
74792;SHT30;63319;46.046;17.802;2022-09-29T07:54:06;26.47;50.77
74792;SHT30;63319;46.046;17.802;2022-09-29T07:57:12;26.52;50.95
74792;SHT30;63319;46.046;17.802;2022-09-29T08:00:15;26.43;51.03
74792;SHT30;63319;46.046;17.802;2022-09-29T08:03:18;26.69;50.42
74792;SHT30;63319;46.046;17.802;2022-09-29T08:06:23;26.09;52.20
74792;SHT30;63319;46.046;17.802;2022-09-29T08:09:26;25.88;53.24
74792;SHT30;63319;46.046;17.802;2022-09-29T08:12:41;26.42;51.89
74792;SHT30;63319;46.046;17.802;2022-09-29T08:15:45;26.64;51.62
74792;SHT30;63319;46.046;17.802;2022-09-29T08:18:48;26.35;52.31
74792;SHT30;63319;46.046;17.802;2022-09-29T08:21:52;26.16;53.03
74792;SHT30;63319;46.046;17.802;2022-09-29T08:24:54;26.72;52.07
74792;SHT30;63319;46.046;17.802;2022-09-29T08:27:57;26.76;51.73
74792;SHT30;63319;46.046;17.802;2022-09-29T08:31:04;26.60;52.19
74792;SHT30;63319;46.046;17.802;2022-09-29T08:34:08;26.63;52.36
74792;SHT30;63319;46.046;17.802;2022-09-29T08:37:11;26.54;52.68
74792;SHT30;63319;46.046;17.802;2022-09-29T08:40:16;26.44;52.90
74792;SHT30;63319;46.046;17.802;2022-09-29T08:43:28;26.61;52.81
74792;SHT30;63319;46.046;17.802;2022-09-29T08:46:38;26.56;52.65
74792;SHT30;63319;46.046;17.802;2022-09-29T08:49:45;26.80;52.31
74792;SHT30;63319;46.046;17.802;2022-09-29T08:52:53;26.74;52.63
74792;SHT30;63319;46.046;17.802;2022-09-29T08:56:04;27.08;51.53
74792;SHT30;63319;46.046;17.802;2022-09-29T08:59:09;26.69;52.81
74792;SHT30;63319;46.046;17.802;2022-09-29T09:02:34;26.56;53.27
74792;SHT30;63319;46.046;17.802;2022-09-29T09:12:44;26.40;54.04
74792;SHT30;63319;46.046;17.802;2022-09-29T09:19:35;27.00;52.89
74792;SHT30;63319;46.046;17.802;2022-09-29T09:25:54;26.57;54.18
74792;SHT30;63319;46.046;17.802;2022-09-29T09:29:02;26.67;54.23
74792;SHT30;63319;46.046;17.802;2022-09-29T09:32:11;26.97;53.12
74792;SHT30;63319;46.046;17.802;2022-09-29T09:35:20;26.91;53.57
74792;SHT30;63319;46.046;17.802;2022-09-29T09:38:38;26.39;54.87
74792;SHT30;63319;46.046;17.802;2022-09-29T09:41:48;26.44;54.76
74792;SHT30;63319;46.046;17.802;2022-09-29T09:45:02;26.56;54.32
74792;SHT30;63319;46.046;17.802;2022-09-29T09:48:14;26.33;55.25
74792;SHT30;63319;46.046;17.802;2022-09-29T09:55:03;26.47;55.51
74792;SHT30;63319;46.046;17.802;2022-09-29T10:01:28;26.33;56.21
74792;SHT30;63319;46.046;17.802;2022-09-29T10:04:31;26.73;55.52
74792;SHT30;63319;46.046;17.802;2022-09-29T10:07:35;26.57;56.00
74792;SHT30;63319;46.046;17.802;2022-09-29T10:10:44;26.49;55.81
74792;SHT30;63319;46.046;17.802;2022-09-29T10:14:13;26.43;55.88
74792;SHT30;63319;46.046;17.802;2022-09-29T10:17:23;26.36;55.92
74792;SHT30;63319;46.046;17.802;2022-09-29T10:20:31;26.22;56.45
74792;SHT30;63319;46.046;17.802;2022-09-29T10:23:38;26.73;55.00
74792;SHT30;63319;46.046;17.802;2022-09-29T10:26:42;26.37;56.24
74792;SHT30;63319;46.046;17.802;2022-09-29T10:29:48;26.60;55.67
74792;SHT30;63319;46.046;17.802;2022-09-29T10:32:58;26.35;56.23
74792;SHT30;63319;46.046;17.802;2022-09-29T10:36:08;26.59;55.55
74792;SHT30;63319;46.046;17.802;2022-09-29T10:39:41;26.64;55.44
74792;SHT30;63319;46.046;17.802;2022-09-29T10:42:46;26.67;55.66
74792;SHT30;63319;46.046;17.802;2022-09-29T10:45:50;26.44;56.16
74792;SHT30;63319;46.046;17.802;2022-09-29T10:49:09;26.50;55.78
74792;SHT30;63319;46.046;17.802;2022-09-29T10:55:29;26.65;55.74
74792;SHT30;63319;46.046;17.802;2022-09-29T10:58:35;26.59;55.46
74792;SHT30;63319;46.046;17.802;2022-09-29T11:02:00;26.59;55.58
74792;SHT30;63319;46.046;17.802;2022-09-29T11:05:18;26.80;54.99
74792;SHT30;63319;46.046;17.802;2022-09-29T11:08:22;26.37;56.04
74792;SHT30;63319;46.046;17.802;2022-09-29T11:17:49;24.96;60.51
74792;SHT30;63319;46.046;17.802;2022-09-29T11:24:39;24.71;61.41
